Time;durP1;ratioP1;P1;durP2;ratioP2;P2;SDS_P1;SDS_P2;PMS_P1;PMS_P2;Temp;Humidity;BMP_temperature;BMP_pressure;BME280_temperature;BME280_humidity;BME280_pressure;Samples;Min_cycle;Max_cycle;Signal;HPM_P1;HPM_P2
2021/12/22 00:21:10;;;;;;;15.05;8.07;;;-0.70;93.40;;;;;;2094444;28;20473;-95
2021/12/22 00:22:11;;;;;;;14.35;7.90;;;-0.70;93.40;;;;;;2075857;28;20085;-94
2021/12/22 00:52:35;;;;;;;16.15;8.77;;;-0.80;93.60;;;;;;2091570;28;20052;-94
2021/12/22 00:53:36;;;;;;;12.27;8.27;;;-0.80;93.60;;;;;;2093895;28;20056;-94
2021/12/22 00:54:37;;;;;;;16.08;8.43;;;-0.80;93.60;;;;;;2083819;28;20431;-95
2021/12/22 00:55:37;;;;;;;14.13;8.35;;;-0.80;93.70;;;;;;2064417;28;20057;-95
2021/12/22 00:56:38;;;;;;;13.57;8.23;;;-0.80;93.70;;;;;;2069643;28;20041;-95
2021/12/22 03:34:47;;;;;;;11.93;6.07;;;-1.30;93.50;;;;;;2092447;28;20052;-94
2021/12/22 03:35:48;;;;;;;12.43;7.50;;;-1.30;93.60;;;;;;2085960;28;20137;-94
2021/12/22 03:36:49;;;;;;;15.95;8.57;;;-1.40;93.60;;;;;;2089189;28;20100;-95
2021/12/22 03:37:53;;;;;;;13.10;7.18;;;-1.40;93.60;;;;;;2098509;28;20040;-94
2021/12/22 03:38:54;;;;;;;13.65;7.10;;;-1.40;93.70;;;;;;2073914;28;20057;-94
2021/12/22 03:39:55;;;;;;;14.50;7.18;;;-1.40;93.80;;;;;;2068346;28;20065;-94
2021/12/22 03:40:56;;;;;;;15.25;8.50;;;-1.40;93.80;;;;;;2089927;28;20040;-93
2021/12/22 03:41:56;;;;;;;14.18;7.32;;;-1.40;93.90;;;;;;2073487;28;20088;-94
2021/12/22 03:42:57;;;;;;;16.48;9.05;;;-1.40;93.90;;;;;;2081953;28;20603;-93
2021/12/22 03:43:58;;;;;;;14.38;8.07;;;-1.40;94.00;;;;;;2076679;28;20575;-94
2021/12/22 03:44:59;;;;;;;17.50;9.70;;;-1.40;94.00;;;;;;2073957;28;20069;-94
2021/12/22 03:46:00;;;;;;;15.85;8.38;;;-1.40;94.00;;;;;;2083528;28;20048;-95
2021/12/22 03:47:01;;;;;;;18.48;9.75;;;-1.40;94.00;;;;;;2088975;28;20029;-94
2021/12/22 03:48:02;;;;;;;14.25;8.95;;;-1.40;94.00;;;;;;2081996;28;20171;-93
2021/12/22 03:49:04;;;;;;;15.55;9.07;;;-1.40;94.00;;;;;;2097711;28;20498;-95
2021/12/22 03:50:06;;;;;;;18.45;9.70;;;-1.40;94.10;;;;;;2081199;28;20041;-94
2021/12/22 03:51:06;;;;;;;15.07;9.00;;;-1.40;94.10;;;;;;2087433;28;20037;-94
2021/12/22 03:52:08;;;;;;;17.15;9.43;;;-1.40;94.10;;;;;;2086182;28;20498;-93
2021/12/22 03:53:11;;;;;;;18.70;10.57;;;-1.50;94.30;;;;;;2074055;28;20141;-95
2021/12/22 03:54:13;;;;;;;16.88;9.48;;;-1.40;94.10;;;;;;2079093;28;20533;-94
2021/12/22 03:55:14;;;;;;;15.68;9.45;;;-1.40;94.10;;;;;;2081080;28;20040;-94
2021/12/22 03:56:14;;;;;;;17.25;10.27;;;-1.50;94.10;;;;;;2073564;28;20508;-95
2021/12/22 03:57:15;;;;;;;18.58;10.52;;;-1.40;94.20;;;;;;2081394;28;20051;-95
2021/12/22 03:58:16;;;;;;;16.20;9.13;;;-1.40;94.20;;;;;;2073810;28;20030;-94
2021/12/22 03:59:17;;;;;;;16.75;9.35;;;-1.40;94.40;;;;;;2072380;28;20068;-93
2021/12/22 04:00:18;;;;;;;15.38;9.25;;;-1.40;94.20;;;;;;2079223;28;20030;-93
2021/12/22 04:01:19;;;;;;;14.27;9.02;;;-1.40;94.20;;;;;;2073693;28;20037;-94
2021/12/22 04:02:21;;;;;;;15.38;9.25;;;-1.40;94.20;;;;;;2080733;28;20029;-95
2021/12/22 04:03:26;;;;;;;16.67;9.18;;;-1.40;94.20;;;;;;2080096;28;20063;-94
2021/12/22 04:04:27;;;;;;;17.65;9.32;;;-1.50;94.10;;;;;;2074367;28;20064;-94
2021/12/22 04:05:29;;;;;;;16.02;9.73;;;-1.40;94.20;;;;;;2085532;28;20120;-94
2021/12/22 04:06:29;;;;;;;18.45;10.35;;;-1.50;94.10;;;;;;2080233;28;20034;-94
2021/12/22 04:07:31;;;;;;;14.38;9.27;;;-1.40;94.20;;;;;;2068548;28;20136;-94
2021/12/22 04:08:55;;;;;;;18.17;10.07;;;-1.50;94.10;;;;;;2077345;28;20029;-94
2021/12/22 04:11:27;;;;;;;16.08;9.30;;;-1.50;94.10;;;;;;2088797;28;20080;-94
2021/12/22 04:13:51;;;;;;;17.58;9.82;;;-1.50;94.10;;;;;;2076537;28;20029;-94
2021/12/22 06:11:38;;;;;;;16.38;7.63;;;-2.00;93.80;;;;;;2074789;28;20054;-93
2021/12/22 06:13:23;;;;;;;12.02;6.35;;;-2.00;93.70;;;;;;2080356;28;20038;-93
2021/12/22 06:15:12;;;;;;;14.15;6.82;;;-2.00;93.80;;;;;;2079720;28;20042;-93
2021/12/22 06:16:18;;;;;;;11.82;6.50;;;-2.00;93.80;;;;;;2086619;28;20093;-93
2021/12/22 06:17:19;;;;;;;13.27;7.40;;;-2.00;93.90;;;;;;2074445;28;20061;-91
2021/12/22 06:19:02;;;;;;;13.23;6.85;;;-2.00;93.90;;;;;;2061821;28;20038;-92
2021/12/22 06:20:53;;;;;;;13.45;6.78;;;-2.00;93.90;;;;;;2089076;28;20052;-90
2021/12/22 06:22:37;;;;;;;14.43;7.40;;;-2.00;94.00;;;;;;2092687;28;20030;-92
2021/12/22 06:34:27;;;;;;;15.18;7.38;;;-2.00;94.00;;;;;;2095116;28;20045;-93
2021/12/22 06:35:53;;;;;;;12.80;6.43;;;-2.00;94.00;;;;;;2082795;28;20057;-93
2021/12/22 06:37:01;;;;;;;15.15;7.55;;;-2.00;94.00;;;;;;2082074;28;20486;-90
2021/12/22 06:38:02;;;;;;;13.32;7.05;;;-2.00;94.00;;;;;;2078638;28;20081;-93
2021/12/22 06:39:04;;;;;;;18.58;8.13;;;-2.00;94.00;;;;;;2081002;28;20063;-92
2021/12/22 06:40:06;;;;;;;16.80;8.07;;;-2.00;94.00;;;;;;2084035;28;20490;-92
2021/12/22 06:41:07;;;;;;;16.10;8.30;;;-2.00;94.00;;;;;;2088392;28;20055;-92
2021/12/22 06:42:08;;;;;;;18.60;8.65;;;-2.00;94.00;;;;;;2097243;28;20056;-93
2021/12/22 06:43:10;;;;;;;16.67;8.20;;;-2.00;94.10;;;;;;2092179;28;20026;-93
2021/12/22 06:44:10;;;;;;;15.52;7.95;;;-2.00;94.10;;;;;;2082912;28;20058;-93
2021/12/22 06:45:13;;;;;;;13.02;7.38;;;-1.90;94.20;;;;;;2077774;28;20101;-92
2021/12/22 06:46:13;;;;;;;16.40;8.35;;;-1.90;94.20;;;;;;2088684;28;20036;-91
2021/12/22 06:47:14;;;;;;;16.88;8.23;;;-1.90;94.20;;;;;;2094149;28;20095;-92
2021/12/22 06:48:15;;;;;;;17.38;8.02;;;-1.90;94.20;;;;;;2078951;28;20101;-92
2021/12/22 06:49:36;;;;;;;15.43;8.38;;;-1.90;94.20;;;;;;2089602;28;20052;-92
2021/12/22 06:57:01;;;;;;;15.57;7.70;;;-1.80;94.10;;;;;;2063894;28;20026;-91
2021/12/22 07:10:11;;;;;;;13.65;7.10;;;-1.90;94.00;;;;;;2088321;28;20052;-92
2021/12/22 07:11:15;;;;;;;18.80;8.85;;;-1.90;94.00;;;;;;2099483;28;20044;-90
2021/12/22 07:12:16;;;;;;;15.25;8.10;;;-2.00;94.00;;;;;;2091875;28;20073;-88
2021/12/22 07:13:18;;;;;;;16.08;7.85;;;-2.00;94.00;;;;;;2074361;28;20037;-88
2021/12/22 07:14:19;;;;;;;14.48;7.75;;;-2.00;94.00;;;;;;2080700;28;20041;-88
2021/12/22 07:15:20;;;;;;;16.75;8.02;;;-2.00;94.00;;;;;;2076117;28;20034;-88
2021/12/22 07:16:22;;;;;;;15.85;7.78;;;-2.00;94.10;;;;;;2057035;28;20129;-88
2021/12/22 07:17:23;;;;;;;16.88;8.30;;;-2.00;94.10;;;;;;2062896;28;20069;-88
2021/12/22 07:18:24;;;;;;;16.60;8.75;;;-2.00;94.10;;;;;;2072009;28;20156;-87
2021/12/22 07:19:24;;;;;;;15.20;7.88;;;-2.00;94.10;;;;;;2086888;28;20083;-87
2021/12/22 07:20:25;;;;;;;14.23;7.90;;;-2.00;94.20;;;;;;2088827;28;20481;-88
2021/12/22 07:21:29;;;;;;;14.18;7.88;;;-1.90;94.20;;;;;;2086605;28;20490;-87
2021/12/22 07:22:30;;;;;;;17.27;8.23;;;-1.90;94.20;;;;;;2089530;28;20045;-87
2021/12/22 07:23:37;;;;;;;16.45;8.77;;;-1.90;94.20;;;;;;2086783;28;20063;-88
2021/12/22 07:24:38;;;;;;;17.23;9.48;;;-1.90;94.20;;;;;;2094564;28;20041;-88
2021/12/22 07:25:39;;;;;;;16.08;8.82;;;-1.90;94.20;;;;;;2077617;28;20033;-87
2021/12/22 07:26:40;;;;;;;17.98;9.23;;;-1.90;94.20;;;;;;2087502;28;20056;-87
2021/12/22 07:27:41;;;;;;;16.48;9.05;;;-1.90;94.30;;;;;;2084071;28;20131;-85
2021/12/22 07:28:45;;;;;;;16.70;8.70;;;-1.90;94.20;;;;;;2064400;28;20047;-87
2021/12/22 07:29:46;;;;;;;19.15;9.82;;;-1.90;94.30;;;;;;2083069;28;20471;-89
2021/12/22 07:30:47;;;;;;;16.95;8.73;;;-1.90;94.30;;;;;;2083410;28;20072;-88
2021/12/22 07:31:48;;;;;;;15.85;9.23;;;-1.90;94.20;;;;;;2097492;28;20094;-88
2021/12/22 07:32:49;;;;;;;16.77;8.50;;;-1.90;94.20;;;;;;2082451;28;20067;-88
2021/12/22 07:34:07;;;;;;;16.77;8.68;;;-1.90;94.20;;;;;;2082646;28;20033;-89
2021/12/22 07:35:10;;;;;;;16.83;8.88;;;-1.90;94.20;;;;;;2078688;28;20040;-88
2021/12/22 07:36:11;;;;;;;17.77;9.30;;;-1.90;94.20;;;;;;2098454;28;20047;-88
2021/12/22 07:37:26;;;;;;;19.38;9.35;;;-1.80;94.30;;;;;;2089600;28;20034;-88
2021/12/22 07:38:35;;;;;;;17.10;8.73;;;-1.90;94.20;;;;;;2090089;28;20040;-88
2021/12/22 07:39:35;;;;;;;15.45;8.50;;;-1.80;94.30;;;;;;2096813;28;20514;-88
2021/12/22 07:40:36;;;;;;;16.25;8.85;;;-1.80;94.30;;;;;;2078171;28;20173;-88
2021/12/22 07:41:37;;;;;;;16.23;8.57;;;-1.80;94.20;;;;;;2075180;28;20044;-88
2021/12/22 07:42:38;;;;;;;17.52;8.93;;;-1.80;94.20;;;;;;2082240;28;20076;-88
2021/12/22 07:43:39;;;;;;;16.27;8.60;;;-1.80;94.20;;;;;;2090336;28;20455;-88
2021/12/22 07:44:40;;;;;;;15.98;8.43;;;-1.80;94.20;;;;;;2085815;28;20085;-88
2021/12/22 07:45:41;;;;;;;17.33;8.77;;;-1.80;94.20;;;;;;2073289;28;20034;-87
2021/12/22 07:46:42;;;;;;;16.88;8.77;;;-1.80;94.20;;;;;;2072963;28;20058;-88
2021/12/22 07:47:43;;;;;;;16.88;8.98;;;-1.80;94.20;;;;;;2080763;28;20038;-88
2021/12/22 07:48:44;;;;;;;20.20;10.30;;;-1.80;94.20;;;;;;2084402;28;20112;-87
2021/12/22 07:49:44;;;;;;;16.98;8.98;;;-1.80;94.20;;;;;;2088720;28;20499;-88
2021/12/22 07:50:45;;;;;;;16.02;8.98;;;-1.80;94.20;;;;;;2084319;28;20061;-89
2021/12/22 07:51:46;;;;;;;16.27;8.77;;;-1.80;94.20;;;;;;2071505;28;20172;-88
2021/12/22 07:52:48;;;;;;;18.65;10.23;;;-1.80;94.20;;;;;;2080832;28;20458;-87
2021/12/22 07:53:49;;;;;;;19.50;10.23;;;-1.80;94.20;;;;;;2079147;28;20045;-87
2021/12/22 07:54:58;;;;;;;18.55;10.25;;;-1.80;94.20;;;;;;2085821;28;20479;-91
2021/12/22 07:56:02;;;;;;;17.75;9.02;;;-1.80;94.40;;;;;;2093225;28;20047;-87
2021/12/22 07:57:06;;;;;;;19.08;10.07;;;-1.80;94.20;;;;;;2078056;28;20452;-87
2021/12/22 07:58:12;;;;;;;18.58;9.23;;;-1.80;94.20;;;;;;2086672;28;20040;-88
2021/12/22 07:59:16;;;;;;;16.90;8.80;;;-1.80;94.20;;;;;;2090940;28;20036;-88
2021/12/22 08:00:20;;;;;;;17.10;9.45;;;-1.80;94.20;;;;;;2089093;28;20070;-87
2021/12/22 08:01:27;;;;;;;17.52;9.43;;;-1.80;94.20;;;;;;2090686;28;20072;-87
2021/12/22 08:02:28;;;;;;;16.50;8.90;;;-1.80;94.20;;;;;;2101741;28;20039;-88
2021/12/22 08:03:29;;;;;;;17.88;9.73;;;-1.80;94.20;;;;;;2088027;28;20041;-88
2021/12/22 08:04:54;;;;;;;18.40;9.45;;;-1.80;94.20;;;;;;2076974;28;20124;-88
2021/12/22 08:05:55;;;;;;;15.95;8.35;;;-1.90;94.20;;;;;;2090116;28;20498;-87
2021/12/22 08:06:56;;;;;;;16.65;8.68;;;-1.90;94.10;;;;;;2077942;28;20541;-87
2021/12/22 08:07:59;;;;;;;17.60;9.43;;;-1.80;94.20;;;;;;2065115;28;20069;-87
2021/12/22 08:09:03;;;;;;;21.95;10.82;;;-1.80;94.20;;;;;;2077993;28;20111;-88
2021/12/22 08:10:13;;;;;;;21.02;10.70;;;-1.90;94.10;;;;;;2085631;28;20127;-88
2021/12/22 08:11:19;;;;;;;19.55;10.25;;;-1.80;94.10;;;;;;2085844;28;20084;-89
2021/12/22 08:12:24;;;;;;;19.10;9.32;;;-1.90;94.10;;;;;;2089173;28;20135;-88
2021/12/22 08:13:26;;;;;;;18.38;9.73;;;-1.90;94.10;;;;;;2077610;28;20032;-88
2021/12/22 08:14:27;;;;;;;16.85;9.30;;;-1.90;94.10;;;;;;2076031;28;20515;-88
2021/12/22 08:15:29;;;;;;;16.40;9.07;;;-1.80;94.20;;;;;;2080842;28;20042;-88
2021/12/22 08:16:31;;;;;;;18.42;9.77;;;-1.80;94.20;;;;;;2095667;28;20033;-88
2021/12/22 08:17:36;;;;;;;18.50;9.10;;;-1.80;94.20;;;;;;2097443;28;20029;-88
2021/12/22 08:18:38;;;;;;;19.90;9.73;;;-1.80;94.20;;;;;;2082422;28;20553;-88
2021/12/22 08:19:40;;;;;;;17.88;10.32;;;-1.80;94.10;;;;;;2073332;28;20038;-88
2021/12/22 08:20:41;;;;;;;18.83;9.85;;;-1.80;94.10;;;;;;2072921;28;20034;-88
2021/12/22 08:21:44;;;;;;;18.33;9.82;;;-1.80;94.10;;;;;;2079568;28;20041;-90
2021/12/22 08:22:47;;;;;;;16.90;9.48;;;-1.80;94.20;;;;;;2084050;28;20039;-91
2021/12/22 08:23:50;;;;;;;19.67;9.80;;;-1.80;94.20;;;;;;2074815;28;20038;-90
2021/12/22 08:24:52;;;;;;;21.20;10.38;;;-1.80;94.20;;;;;;2090582;28;20217;-90
2021/12/22 08:26:06;;;;;;;17.90;10.05;;;-1.70;94.20;;;;;;2074326;28;20480;-94
2021/12/22 08:27:07;;;;;;;16.38;9.52;;;-1.80;94.10;;;;;;2066360;28;20524;-87
2021/12/22 08:28:09;;;;;;;17.85;9.70;;;-1.80;94.10;;;;;;2080696;28;20037;-87
2021/12/22 08:29:11;;;;;;;20.20;9.48;;;-1.70;94.10;;;;;;2074827;28;20037;-87
2021/12/22 08:30:12;;;;;;;15.20;8.57;;;-1.70;94.10;;;;;;2086799;28;20384;-87
2021/12/22 08:31:14;;;;;;;18.70;9.68;;;-1.70;94.10;;;;;;2083092;28;20431;-87
2021/12/22 08:32:18;;;;;;;16.95;8.75;;;-1.60;94.10;;;;;;2083302;28;20490;-87
2021/12/22 08:33:26;;;;;;;17.83;8.85;;;-1.60;94.10;;;;;;2083327;28;20434;-87
2021/12/22 08:34:36;;;;;;;17.17;9.27;;;-1.60;94.10;;;;;;2090811;28;20063;-87
2021/12/22 08:38:50;;;;;;;18.52;9.30;;;-1.60;94.10;;;;;;2075260;28;20037;-87
2021/12/22 08:39:37;;;;;;;15.77;8.65;;;-1.50;94.00;;;;;;2098259;28;20037;-87
2021/12/22 08:40:40;;;;;;;19.65;9.65;;;-1.50;94.00;;;;;;2089574;28;20049;-87
2021/12/22 08:41:45;;;;;;;14.48;7.80;;;-1.40;94.00;;;;;;2080607;28;20041;-87
2021/12/22 08:43:25;;;;;;;14.73;8.07;;;-1.40;94.00;;;;;;2086978;28;20021;-89
2021/12/22 08:44:32;;;;;;;16.75;8.00;;;-1.40;94.00;;;;;;2092134;28;20432;-90
2021/12/22 08:45:46;;;;;;;14.40;7.80;;;-1.30;93.90;;;;;;2079898;28;20042;-89
2021/12/22 08:46:52;;;;;;;16.83;7.80;;;-1.30;93.90;;;;;;2088892;28;20037;-89
2021/12/22 08:47:55;;;;;;;14.70;7.60;;;-1.30;93.80;;;;;;2082266;28;20033;-89
2021/12/22 08:48:57;;;;;;;15.65;7.93;;;-1.30;93.80;;;;;;2071909;28;20049;-92
2021/12/22 08:49:57;;;;;;;14.13;8.23;;;-1.30;93.80;;;;;;2072795;28;20086;-88
2021/12/22 08:50:59;;;;;;;16.38;8.50;;;-1.30;93.80;;;;;;2088787;28;20033;-88
2021/12/22 08:52:01;;;;;;;14.40;8.25;;;-1.30;93.80;;;;;;2082726;28;20033;-88
2021/12/22 08:53:03;;;;;;;13.80;8.02;;;-1.30;93.80;;;;;;2075726;28;20044;-88
2021/12/22 08:54:32;;;;;;;16.00;8.27;;;-1.20;93.90;;;;;;2087817;28;20044;-94
2021/12/22 08:55:33;;;;;;;14.38;7.38;;;-1.20;93.90;;;;;;2085611;28;20394;-88
2021/12/22 08:56:35;;;;;;;15.65;7.93;;;-1.20;93.80;;;;;;2084666;28;20037;-89
2021/12/22 08:57:36;;;;;;;13.27;7.43;;;-1.20;93.80;;;;;;2077504;28;20061;-90
2021/12/22 08:58:39;;;;;;;14.05;8.25;;;-1.10;93.80;;;;;;2089793;28;20455;-89
2021/12/22 08:59:40;;;;;;;15.88;7.78;;;-1.10;93.80;;;;;;2084722;28;20083;-89
2021/12/22 09:00:41;;;;;;;16.10;8.55;;;-1.10;93.80;;;;;;2082358;28;20091;-89
2021/12/22 09:01:43;;;;;;;17.17;8.02;;;-1.10;93.80;;;;;;2090794;28;20071;-88
2021/12/22 09:02:49;;;;;;;15.40;8.40;;;-1.10;93.80;;;;;;2080176;28;20045;-88
2021/12/22 09:03:50;;;;;;;15.77;8.05;;;-1.10;93.80;;;;;;2082477;28;20404;-88
2021/12/22 09:04:52;;;;;;;17.92;8.38;;;-1.00;93.80;;;;;;2081214;28;20045;-88
2021/12/22 09:05:54;;;;;;;16.13;8.50;;;-1.00;94.00;;;;;;2074477;28;20045;-88
2021/12/22 09:07:00;;;;;;;13.82;7.90;;;-1.00;93.70;;;;;;2090014;28;20032;-88
2021/12/22 09:08:02;;;;;;;15.32;8.55;;;-1.00;93.70;;;;;;2089195;28;20037;-88
2021/12/22 09:09:08;;;;;;;16.58;8.25;;;-1.00;93.70;;;;;;2070952;28;20487;-88
2021/12/22 09:10:09;;;;;;;15.10;8.05;;;-1.00;93.70;;;;;;2079831;28;20047;-88
2021/12/22 09:11:12;;;;;;;16.65;8.25;;;-1.00;93.70;;;;;;2074301;28;20049;-88
2021/12/22 09:12:16;;;;;;;16.58;8.50;;;-1.00;93.70;;;;;;2076524;28;20107;-90
2021/12/22 09:13:20;;;;;;;14.63;8.27;;;-0.90;93.70;;;;;;2085388;28;20049;-89
2021/12/22 09:14:25;;;;;;;15.43;8.38;;;-0.90;93.70;;;;;;2079125;28;20409;-88
2021/12/22 09:15:26;;;;;;;14.32;7.32;;;-0.90;93.70;;;;;;2072521;28;20046;-90
2021/12/22 09:16:27;;;;;;;16.30;7.93;;;-0.90;93.60;;;;;;2078626;28;20044;-89
2021/12/22 09:17:29;;;;;;;16.48;7.97;;;-0.90;93.60;;;;;;2085545;28;20045;-90
2021/12/22 09:18:30;;;;;;;14.77;7.63;;;-0.80;93.60;;;;;;2077445;28;20499;-89
2021/12/22 09:19:31;;;;;;;13.68;7.18;;;-0.80;93.60;;;;;;2070869;28;20120;-88
2021/12/22 09:20:35;;;;;;;15.43;7.70;;;-0.80;93.60;;;;;;2060722;28;20532;-89
2021/12/22 09:21:56;;;;;;;13.35;7.03;;;-0.80;93.60;;;;;;2071705;28;20130;-89
2021/12/22 09:22:58;;;;;;;13.70;7.07;;;-0.70;93.60;;;;;;2083461;28;20049;-88
2021/12/22 09:24:01;;;;;;;13.80;7.53;;;-0.70;93.60;;;;;;2075222;28;20068;-88
2021/12/22 09:25:03;;;;;;;12.52;6.70;;;-0.70;93.50;;;;;;2073119;28;20530;-88
2021/12/22 09:26:05;;;;;;;12.35;7.25;;;-0.70;93.50;;;;;;2072248;28;20056;-88
2021/12/22 09:27:07;;;;;;;11.80;6.75;;;-0.60;93.50;;;;;;2079637;28;20438;-88
2021/12/22 09:28:16;;;;;;;14.13;7.43;;;-0.60;93.50;;;;;;2080429;28;20054;-89
2021/12/22 09:29:17;;;;;;;12.10;6.60;;;-0.60;93.50;;;;;;2071824;28;20072;-88
2021/12/22 09:30:18;;;;;;;13.38;6.47;;;-0.60;93.50;;;;;;2074303;28;20048;-88
2021/12/22 09:31:20;;;;;;;14.07;7.10;;;-0.60;93.40;;;;;;2074454;28;20061;-89
2021/12/22 09:32:21;;;;;;;13.57;7.20;;;-0.60;93.40;;;;;;2078458;28;20037;-89
2021/12/22 09:33:23;;;;;;;10.82;6.53;;;-0.50;93.50;;;;;;2079676;28;20030;-88
2021/12/22 09:34:26;;;;;;;12.55;6.63;;;-0.50;93.40;;;;;;2080306;28;20037;-88
2021/12/22 09:35:28;;;;;;;13.23;6.78;;;-0.50;93.40;;;;;;2074451;28;20038;-88
2021/12/22 09:36:29;;;;;;;12.02;6.53;;;-0.50;93.40;;;;;;2073934;28;20026;-89
2021/12/22 09:37:31;;;;;;;11.40;6.30;;;-0.50;93.40;;;;;;2086451;28;20037;-88
2021/12/22 09:38:34;;;;;;;12.48;6.15;;;-0.50;93.40;;;;;;2082053;28;20137;-89
2021/12/22 09:39:37;;;;;;;12.95;6.53;;;-0.40;93.40;;;;;;2081608;28;20435;-91
2021/12/22 09:40:40;;;;;;;12.27;6.55;;;-0.40;93.40;;;;;;2085231;28;20033;-90
2021/12/22 09:41:41;;;;;;;14.32;7.28;;;-0.40;93.30;;;;;;2073828;28;20132;-90
2021/12/22 09:42:43;;;;;;;12.68;6.95;;;-0.40;93.30;;;;;;2073409;28;20092;-90
2021/12/22 09:43:44;;;;;;;13.82;7.32;;;-0.30;93.30;;;;;;2078852;28;20043;-90
2021/12/22 09:44:46;;;;;;;13.75;7.10;;;-0.30;93.30;;;;;;2065505;28;20042;-89
2021/12/22 09:45:53;;;;;;;13.48;6.82;;;-0.30;93.30;;;;;;2074500;28;20081;-90
2021/12/22 09:46:54;;;;;;;13.82;7.32;;;-0.30;93.20;;;;;;2082205;28;20033;-89
2021/12/22 09:48:20;;;;;;;12.23;6.63;;;-0.30;93.20;;;;;;2082107;28;20040;-88
2021/12/22 09:53:33;;;;;;;12.60;6.20;;;-0.20;93.10;;;;;;2089606;28;20037;-89
2021/12/22 09:55:42;;;;;;;11.20;5.65;;;-0.20;93.10;;;;;;2088539;28;20029;-89
2021/12/22 09:57:24;;;;;;;11.63;6.22;;;-0.20;93.10;;;;;;2083690;28;20030;-89
2021/12/22 09:58:44;;;;;;;10.63;5.38;;;-0.20;93.10;;;;;;2082217;28;20045;-88
2021/12/22 09:59:47;;;;;;;11.63;5.60;;;-0.20;93.00;;;;;;2079534;28;20038;-89
2021/12/22 10:00:51;;;;;;;10.18;5.53;;;-0.20;93.00;;;;;;2087494;28;20033;-89
2021/12/22 10:01:52;;;;;;;11.00;5.90;;;-0.20;93.00;;;;;;2085250;28;20021;-90
2021/12/22 10:02:53;;;;;;;9.30;5.45;;;-0.20;93.00;;;;;;2079217;28;20061;-89
2021/12/22 10:03:58;;;;;;;10.10;5.70;;;-0.20;93.10;;;;;;2082664;28;20033;-89
2021/12/22 10:05:00;;;;;;;10.02;5.80;;;-0.20;93.10;;;;;;2081275;28;20446;-89
2021/12/22 10:06:02;;;;;;;10.90;5.80;;;-0.10;93.10;;;;;;2074642;28;20446;-89
2021/12/22 10:07:04;;;;;;;10.32;5.72;;;-0.10;93.10;;;;;;2082492;28;20038;-89
2021/12/22 10:08:14;;;;;;;10.40;5.55;;;-0.10;93.10;;;;;;2082544;28;20038;-89
2021/12/22 10:09:21;;;;;;;10.27;5.70;;;-0.10;93.10;;;;;;2077524;28;20058;-89
2021/12/22 10:10:27;;;;;;;10.25;5.90;;;-0.10;93.10;;;;;;2068820;28;20077;-90
2021/12/22 10:11:55;;;;;;;10.52;6.03;;;0.00;93.10;;;;;;2091976;28;20057;-90
2021/12/22 10:13:28;;;;;;;13.07;6.20;;;0.00;93.40;;;;;;2090306;28;20052;-90
2021/12/22 10:16:17;;;;;;;10.68;5.65;;;0.00;93.00;;;;;;2090629;28;19909;-90
2021/12/22 10:17:56;;;;;;;9.50;5.15;;;0.00;93.00;;;;;;2090482;28;20537;-89
2021/12/22 10:19:16;;;;;;;9.68;5.32;;;0.00;92.90;;;;;;2083689;28;20474;-90
2021/12/22 10:20:21;;;;;;;10.68;5.60;;;0.00;92.90;;;;;;2084992;28;20041;-89
2021/12/22 10:21:22;;;;;;;12.77;6.00;;;0.10;92.90;;;;;;2098546;28;20048;-89
2021/12/22 10:22:31;;;;;;;9.23;5.40;;;0.00;92.90;;;;;;2074426;28;20033;-89
2021/12/22 10:23:31;;;;;;;9.43;5.63;;;0.10;92.90;;;;;;2061113;28;20035;-89
2021/12/22 10:24:44;;;;;;;10.80;5.70;;;0.10;92.90;;;;;;2094537;28;20544;-89
2021/12/22 10:28:51;;;;;;;9.45;5.20;;;0.10;92.90;;;;;;2086442;28;20037;-89
2021/12/22 10:29:54;;;;;;;9.23;5.20;;;0.10;92.90;;;;;;2098678;28;20431;-89
2021/12/22 10:31:01;;;;;;;10.15;5.47;;;0.10;92.80;;;;;;2098652;28;20037;-89
2021/12/22 10:32:17;;;;;;;9.80;5.30;;;0.10;92.80;;;;;;2088405;28;20032;-90
2021/12/22 10:33:40;;;;;;;10.15;5.13;;;0.10;92.90;;;;;;2087948;28;20050;-89
2021/12/22 10:35:32;;;;;;;8.35;4.95;;;0.10;92.90;;;;;;2079716;28;20049;-89
2021/12/22 10:37:07;;;;;;;7.95;5.00;;;0.10;92.90;;;;;;2092681;28;20040;-89
2021/12/22 10:38:10;;;;;;;10.60;5.97;;;0.10;92.90;;;;;;2108818;28;20093;-88
2021/12/22 10:39:46;;;;;;;9.73;4.80;;;0.10;92.90;;;;;;2101797;28;20082;-89
2021/12/22 10:40:57;;;;;;;8.93;4.82;;;0.10;92.90;;;;;;2100262;28;20068;-90
2021/12/22 10:42:11;;;;;;;8.68;5.00;;;0.10;92.90;;;;;;2101775;28;20029;-88
2021/12/22 10:43:27;;;;;;;10.93;5.47;;;0.20;92.90;;;;;;2098530;28;20040;-88
2021/12/22 10:44:39;;;;;;;8.65;4.72;;;0.20;92.90;;;;;;2095834;28;20053;-88
2021/12/22 10:45:40;;;;;;;9.30;5.30;;;0.20;92.90;;;;;;2098803;28;20545;-88
2021/12/22 10:46:42;;;;;;;9.50;4.93;;;0.20;92.90;;;;;;2084095;28;20060;-89
2021/12/22 10:49:22;;;;;;;8.73;5.18;;;0.20;92.90;;;;;;2064741;28;20049;-89
2021/12/22 10:50:24;;;;;;;10.82;4.88;;;0.30;92.90;;;;;;2085073;28;20049;-88
2021/12/22 10:51:32;;;;;;;9.98;5.45;;;0.30;92.90;;;;;;2080211;28;20030;-88
2021/12/22 10:53:27;;;;;;;9.65;4.93;;;0.30;92.90;;;;;;2079374;28;20045;-88
2021/12/22 10:54:44;;;;;;;8.77;5.10;;;0.30;92.90;;;;;;2099705;28;20040;-87
2021/12/22 10:55:49;;;;;;;9.50;4.85;;;0.30;92.90;;;;;;2072392;28;20050;-88
2021/12/22 10:56:59;;;;;;;8.82;4.85;;;0.30;92.90;;;;;;2078147;28;20096;-87
2021/12/22 10:58:19;;;;;;;7.80;4.60;;;0.40;92.90;;;;;;2090905;28;20033;-93
2021/12/22 10:59:21;;;;;;;10.23;5.30;;;0.40;92.90;;;;;;2088481;28;20120;-91
2021/12/22 11:00:28;;;;;;;7.68;4.38;;;0.40;93.10;;;;;;2088296;28;20037;-92
2021/12/22 11:01:34;;;;;;;8.27;4.55;;;0.40;92.90;;;;;;2093573;28;20032;-91
2021/12/22 11:02:38;;;;;;;8.10;4.70;;;0.40;92.90;;;;;;2100347;28;20033;-91
2021/12/22 11:03:44;;;;;;;8.77;5.18;;;0.40;92.90;;;;;;2096671;28;20066;-91
2021/12/22 11:04:46;;;;;;;8.43;4.75;;;0.40;92.90;;;;;;2091142;28;20041;-92
2021/12/22 11:06:10;;;;;;;8.73;5.18;;;0.40;92.90;;;;;;2090299;28;20042;-92
2021/12/22 11:07:23;;;;;;;9.45;4.65;;;0.40;92.90;;;;;;2083230;28;20033;-92
2021/12/22 11:08:29;;;;;;;9.02;4.65;;;0.40;92.90;;;;;;2089183;28;20028;-92
2021/12/22 11:09:37;;;;;;;9.05;5.25;;;0.40;93.20;;;;;;2098434;28;20037;-92
2021/12/22 11:10:40;;;;;;;7.47;4.43;;;0.40;92.90;;;;;;2087434;28;20029;-93
2021/12/22 11:12:04;;;;;;;9.55;5.10;;;0.50;92.90;;;;;;2073034;28;20531;-93
2021/12/22 11:13:06;;;;;;;8.20;4.40;;;0.50;92.90;;;;;;2079769;28;20066;-93
2021/12/22 11:14:39;;;;;;;9.98;5.30;;;0.50;92.90;;;;;;2083277;28;20033;-93
2021/12/22 11:16:14;;;;;;;8.23;4.90;;;0.50;92.90;;;;;;2089575;28;20025;-93
2021/12/22 11:17:21;;;;;;;8.43;4.85;;;0.60;92.90;;;;;;2094107;28;20037;-92
2021/12/22 11:18:58;;;;;;;7.95;4.55;;;0.50;92.90;;;;;;2091233;28;20048;-92
2021/12/22 11:20:07;;;;;;;7.50;4.65;;;0.60;92.90;;;;;;2098803;28;20029;-93
2021/12/22 11:21:23;;;;;;;9.30;5.30;;;0.60;92.90;;;;;;2092638;28;20316;-93
2021/12/22 11:22:51;;;;;;;8.82;4.90;;;0.60;92.90;;;;;;2084928;28;20041;-93
2021/12/22 11:23:52;;;;;;;8.82;5.05;;;0.60;92.90;;;;;;2081893;28;20052;-91
2021/12/22 11:24:55;;;;;;;8.38;4.70;;;0.60;92.90;;;;;;2083393;28;20036;-94
2021/12/22 11:26:03;;;;;;;8.63;5.22;;;0.60;92.90;;;;;;2088985;28;20040;-92
2021/12/22 11:27:12;;;;;;;7.28;4.93;;;0.60;92.90;;;;;;2092682;28;20086;-92
2021/12/22 11:28:13;;;;;;;8.57;5.10;;;0.60;92.90;;;;;;2075777;28;20042;-92
2021/12/22 11:29:39;;;;;;;11.00;5.78;;;0.60;92.90;;;;;;2076660;28;20050;-94
2021/12/22 11:30:52;;;;;;;8.27;4.80;;;0.70;92.90;;;;;;2102887;28;20136;-90
2021/12/22 11:31:55;;;;;;;9.20;5.40;;;0.70;92.90;;;;;;2083582;28;20487;-90
2021/12/22 11:32:56;;;;;;;8.77;5.38;;;0.70;92.90;;;;;;2075305;28;20116;-90
2021/12/22 11:33:58;;;;;;;9.23;5.05;;;0.70;92.90;;;;;;2089744;28;20079;-91
2021/12/22 11:35:04;;;;;;;8.95;5.35;;;0.70;92.90;;;;;;2076755;28;20102;-90
2021/12/22 11:36:10;;;;;;;9.60;5.82;;;0.70;93.00;;;;;;2070618;28;20030;-91
2021/12/22 11:37:15;;;;;;;9.40;5.82;;;0.70;92.90;;;;;;2072335;28;20038;-91
2021/12/22 11:38:17;;;;;;;9.60;5.82;;;0.70;93.00;;;;;;2081612;28;20038;-91
2021/12/22 11:39:20;;;;;;;9.50;5.95;;;0.80;93.00;;;;;;2081428;28;20030;-91
2021/12/22 11:40:24;;;;;;;10.88;5.95;;;0.80;93.10;;;;;;2091770;28;20094;-91
2021/12/22 11:41:55;;;;;;;9.88;5.68;;;0.80;93.10;;;;;;2094888;28;20398;-90
2021/12/22 11:42:58;;;;;;;10.45;5.47;;;0.80;93.20;;;;;;2090274;28;20033;-90
2021/12/22 11:44:04;;;;;;;8.65;5.20;;;0.90;93.30;;;;;;2089793;28;20083;-91
2021/12/22 11:45:21;;;;;;;8.95;5.10;;;0.90;93.30;;;;;;2097302;28;20060;-91
2021/12/22 11:46:28;;;;;;;7.78;4.78;;;1.00;93.40;;;;;;2089161;28;20049;-91
2021/12/22 11:47:29;;;;;;;10.07;5.65;;;1.00;93.40;;;;;;2080755;28;20108;-91
2021/12/22 11:48:31;;;;;;;11.10;5.65;;;1.10;93.50;;;;;;2081426;28;20025;-92
2021/12/22 11:49:34;;;;;;;9.60;5.25;;;1.10;93.60;;;;;;2082727;28;20033;-91
2021/12/22 11:50:35;;;;;;;11.38;5.78;;;1.20;93.70;;;;;;2073208;28;20038;-91
2021/12/22 11:51:38;;;;;;;8.13;4.95;;;1.20;93.70;;;;;;2074518;28;20132;-91
2021/12/22 11:53:03;;;;;;;9.20;5.25;;;1.30;93.70;;;;;;2087893;28;20040;-90
2021/12/22 11:54:13;;;;;;;9.00;5.10;;;1.30;93.70;;;;;;2083897;28;20036;-91